createdAt,value
2023-07-02T00:01:16.489Z,88.54
2023-07-02T00:04:47.898Z,88.63
2023-07-02T00:07:58.685Z,88.73
2023-07-02T00:11:24.983Z,88.75
2023-07-02T00:14:31.052Z,89.08
2023-07-02T00:18:11.817Z,89.25
2023-07-02T00:21:15.406Z,89.01
2023-07-02T00:24:42.720Z,88.94
2023-07-02T00:27:47.823Z,88.90
2023-07-02T00:31:11.147Z,89.21
2023-07-02T00:34:15.629Z,89.06
2023-07-02T00:37:24.546Z,88.50
2023-07-02T00:40:28.914Z,88.64
2023-07-02T00:43:56.640Z,88.43
2023-07-02T00:47:23.377Z,88.86
2023-07-02T00:50:48.290Z,88.11
2023-07-02T00:53:56.086Z,88.18
2023-07-02T00:57:09.516Z,87.98
2023-07-02T01:00:32.693Z,87.68
2023-07-02T01:03:55.313Z,87.98
2023-07-02T01:07:26.700Z,88.21
2023-07-02T01:10:34.121Z,87.72
2023-07-02T01:13:37.022Z,87.84
2023-07-02T01:16:47.125Z,88.21
2023-07-02T01:20:11.752Z,88.15
2023-07-02T01:23:25.986Z,88.03
2023-07-02T01:26:35.388Z,88.31
2023-07-02T01:30:54.175Z,88.15
2023-07-02T01:33:57.942Z,88.65
2023-07-02T01:37:19.483Z,88.51
2023-07-02T01:40:23.725Z,88.22
2023-07-02T01:43:27.341Z,88.89
2023-07-02T01:46:33.619Z,89.15
2023-07-02T01:49:40.028Z,89.43
2023-07-02T01:53:23.281Z,89.38
2023-07-02T01:56:30.294Z,89.49
2023-07-02T01:59:39.301Z,89.34
2023-07-02T02:03:00.100Z,89.49
2023-07-02T02:06:03.993Z,89.50
2023-07-02T02:09:09.676Z,89.53
2023-07-02T02:12:37.065Z,89.44
2023-07-02T02:15:42.991Z,89.43
2023-07-02T02:18:46.325Z,89.40
2023-07-02T02:21:52.763Z,89.57
2023-07-02T02:24:58.787Z,89.65
2023-07-02T02:28:06.067Z,89.81
2023-07-02T02:31:12.578Z,89.89
2023-07-02T02:34:16.244Z,89.91
2023-07-02T02:37:19.818Z,89.91
2023-07-02T02:40:22.591Z,90.05
2023-07-02T02:43:25.422Z,90.13
2023-07-02T02:46:28.494Z,90.42
2023-07-02T02:49:31.654Z,90.54
2023-07-02T02:52:34.533Z,90.76
2023-07-02T02:55:37.820Z,90.81
2023-07-02T02:58:41.763Z,90.81
2023-07-02T03:01:44.663Z,90.65
2023-07-02T03:04:47.542Z,90.47
2023-07-02T03:07:51.865Z,90.13
2023-07-02T03:10:54.671Z,89.88
2023-07-02T03:13:57.458Z,89.35
2023-07-02T03:17:00.774Z,88.62
2023-07-02T03:20:09.207Z,87.50
2023-07-02T03:23:11.961Z,86.07
2023-07-02T03:26:14.845Z,84.69
2023-07-02T03:29:17.741Z,82.87
2023-07-02T03:32:20.565Z,81.67
2023-07-02T03:35:23.295Z,79.53
2023-07-02T03:38:26.173Z,77.38
2023-07-02T03:41:30.454Z,75.44
2023-07-02T03:44:33.215Z,73.99
2023-07-02T03:47:36.758Z,72.77
2023-07-02T03:50:39.748Z,69.70
2023-07-02T03:53:43.144Z,67.36
2023-07-02T03:56:45.973Z,65.10
2023-07-02T03:59:48.719Z,65.57
2023-07-02T04:02:51.764Z,62.41
2023-07-02T04:05:54.733Z,62.00
2023-07-02T04:08:57.527Z,62.48
2023-07-02T04:12:02.652Z,64.18
2023-07-02T04:15:06.384Z,62.31
2023-07-02T04:18:09.512Z,63.24
2023-07-02T04:21:12.358Z,64.35
2023-07-02T04:24:15.516Z,64.80
2023-07-02T04:27:33.392Z,65.75
2023-07-02T04:30:43.285Z,65.26
2023-07-02T04:33:46.079Z,65.70
2023-07-02T04:36:49.822Z,61.33
2023-07-02T04:39:53.760Z,60.35
2023-07-02T04:42:59.500Z,58.22
2023-07-02T04:46:02.949Z,56.57
2023-07-02T04:49:05.721Z,57.99
2023-07-02T04:52:08.518Z,58.23
2023-07-02T04:55:11.715Z,57.28
2023-07-02T04:58:14.603Z,57.81
2023-07-02T05:01:17.368Z,54.42
2023-07-02T05:04:20.212Z,54.03
2023-07-02T05:07:23.017Z,55.04
2023-07-02T05:10:25.915Z,54.74
2023-07-02T05:13:29.163Z,54.97
2023-07-02T05:16:32.058Z,55.98
2023-07-02T05:19:34.839Z,57.60
2023-07-02T05:22:37.686Z,56.98
2023-07-02T05:25:40.560Z,56.45
2023-07-02T05:28:43.440Z,56.60
2023-07-02T05:31:46.425Z,54.32
2023-07-02T05:34:49.422Z,54.29
2023-07-02T05:37:52.206Z,54.29
2023-07-02T05:40:54.962Z,56.67
2023-07-02T05:43:59.037Z,56.27
2023-07-02T05:47:01.921Z,55.84
2023-07-02T05:50:05.526Z,57.05
2023-07-02T05:53:10.396Z,57.23
2023-07-02T05:56:13.127Z,57.38
2023-07-02T05:59:19.029Z,58.19
2023-07-02T06:02:21.779Z,58.52
2023-07-02T06:05:24.661Z,59.56
2023-07-02T06:08:27.665Z,60.11
2023-07-02T06:11:30.521Z,59.21
2023-07-02T06:14:33.280Z,58.49
2023-07-02T06:17:37.373Z,55.92
2023-07-02T06:20:40.824Z,56.87
2023-07-02T06:23:44.819Z,57.27
2023-07-02T06:26:47.593Z,56.71
2023-07-02T06:29:52.179Z,56.06
2023-07-02T06:32:55.990Z,54.21
2023-07-02T06:35:58.947Z,53.86
2023-07-02T06:39:02.147Z,51.86
2023-07-02T06:42:05.216Z,51.13
2023-07-02T06:45:08.517Z,51.03
2023-07-02T06:48:11.327Z,50.90
2023-07-02T06:51:16.018Z,52.26
2023-07-02T06:54:18.829Z,52.44
2023-07-02T06:57:21.954Z,52.36
2023-07-02T07:00:24.904Z,53.44
2023-07-02T07:03:28.173Z,54.45
2023-07-02T07:06:30.960Z,55.73
2023-07-02T07:09:33.721Z,56.89
2023-07-02T07:12:36.606Z,57.42
2023-07-02T07:15:39.520Z,57.77
2023-07-02T07:18:42.346Z,58.14
2023-07-02T07:21:45.215Z,58.41
2023-07-02T07:24:48.033Z,58.70
2023-07-02T07:27:50.739Z,58.92
2023-07-02T07:30:53.567Z,58.72
2023-07-02T07:33:56.359Z,58.82
2023-07-02T07:36:59.095Z,58.99
2023-07-02T07:40:01.889Z,58.55
2023-07-02T07:43:04.677Z,57.83
2023-07-02T07:46:07.549Z,56.85
2023-07-02T07:49:10.385Z,55.51
2023-07-02T07:52:13.182Z,55.47
2023-07-02T07:55:16.157Z,55.97
2023-07-02T07:58:19.132Z,57.16
2023-07-02T08:01:21.969Z,58.10
2023-07-02T08:04:24.991Z,59.02
2023-07-02T08:07:27.750Z,60.11
2023-07-02T08:10:30.476Z,59.93
2023-07-02T08:13:33.416Z,60.13
2023-07-02T08:16:36.207Z,60.40
2023-07-02T08:19:38.973Z,59.89
2023-07-02T08:22:42.033Z,59.86
2023-07-02T08:25:44.803Z,59.51
2023-07-02T08:28:47.582Z,58.91
2023-07-02T08:31:50.484Z,58.83
2023-07-02T08:34:53.668Z,58.00
2023-07-02T08:37:57.946Z,59.22
2023-07-02T08:41:00.710Z,58.56
2023-07-02T08:44:05.678Z,57.22
2023-07-02T08:47:08.676Z,56.60
2023-07-02T08:50:12.558Z,55.94
2023-07-02T08:53:15.360Z,55.25
2023-07-02T08:56:18.185Z,54.79
2023-07-02T08:59:21.069Z,55.08
2023-07-02T09:02:34.544Z,54.83
2023-07-02T09:05:37.612Z,55.52
2023-07-02T09:08:40.559Z,55.29
2023-07-02T09:11:52.534Z,55.61
2023-07-02T09:15:07.773Z,55.60
2023-07-02T09:18:21.502Z,54.62
2023-07-02T09:21:27.120Z,52.92
2023-07-02T09:24:31.767Z,52.92
2023-07-02T09:27:42.527Z,53.75
2023-07-02T09:30:57.297Z,53.68
2023-07-02T09:34:03.959Z,54.01
2023-07-02T09:37:07.339Z,55.10
2023-07-02T09:40:10.785Z,55.30
2023-07-02T09:43:13.771Z,55.69
2023-07-02T09:46:16.791Z,52.29
2023-07-02T09:49:21.612Z,52.94
2023-07-02T09:52:28.868Z,52.50
2023-07-02T09:55:33.726Z,52.77
2023-07-02T09:58:39.709Z,53.08
2023-07-02T10:01:45.031Z,49.37
2023-07-02T10:04:56.090Z,49.46
2023-07-02T10:08:15.728Z,50.98
2023-07-02T10:11:21.668Z,51.98
2023-07-02T10:14:53.388Z,51.87
2023-07-02T10:18:01.886Z,50.97
2023-07-02T10:21:24.452Z,51.13
2023-07-02T10:24:30.720Z,52.34
2023-07-02T10:27:44.483Z,53.30
2023-07-02T10:30:50.125Z,53.28
2023-07-02T10:34:09.611Z,52.62
2023-07-02T10:37:20.226Z,50.49
2023-07-02T10:40:23.947Z,49.78
2023-07-02T10:43:35.006Z,51.69
2023-07-02T10:47:09.061Z,50.32
2023-07-02T10:50:42.377Z,50.04
2023-07-02T10:54:07.213Z,50.03
2023-07-02T10:57:12.173Z,50.09
2023-07-02T11:00:21.019Z,49.22
2023-07-02T11:03:50.088Z,50.56
2023-07-02T11:07:04.589Z,50.20
2023-07-02T11:10:11.595Z,51.23
2023-07-02T11:13:21.480Z,51.35
2023-07-02T11:16:31.154Z,51.58
2023-07-02T11:19:36.733Z,50.25
2023-07-02T11:22:51.402Z,50.18
2023-07-02T11:25:59.707Z,50.63
2023-07-02T11:29:03.589Z,51.76
2023-07-02T11:32:20.419Z,52.69
2023-07-02T11:35:36.104Z,51.56
2023-07-02T11:38:42.201Z,53.33
2023-07-02T11:41:47.668Z,50.87
2023-07-02T11:44:58.097Z,50.59
2023-07-02T11:48:02.587Z,49.61
2023-07-02T11:51:13.072Z,50.47
2023-07-02T11:54:20.231Z,51.40
2023-07-02T11:57:24.527Z,51.48
2023-07-02T12:00:29.777Z,49.50
2023-07-02T12:03:39.510Z,48.52
2023-07-02T12:06:57.052Z,48.62
2023-07-02T12:10:00.741Z,48.51
2023-07-02T12:13:04.083Z,48.13
2023-07-02T12:16:08.981Z,45.65
2023-07-02T12:19:14.486Z,47.07
2023-07-02T12:22:25.075Z,47.70
2023-07-02T12:25:30.320Z,47.58
2023-07-02T12:28:38.660Z,45.96
2023-07-02T12:31:51.867Z,45.57
2023-07-02T12:35:08.976Z,47.20
2023-07-02T12:38:22.457Z,47.50
2023-07-02T12:41:32.205Z,46.09
2023-07-02T12:44:36.188Z,46.08
2023-07-02T12:47:47.332Z,46.83
2023-07-02T12:51:06.808Z,46.37
2023-07-02T12:54:13.011Z,46.93
2023-07-02T12:57:18.599Z,46.27
2023-07-02T13:00:26.145Z,45.41
2023-07-02T13:03:33.627Z,45.21
2023-07-02T13:06:42.439Z,46.16
2023-07-02T13:09:47.582Z,46.82
2023-07-02T13:13:10.141Z,50.15
2023-07-02T13:16:23.968Z,54.05
2023-07-02T13:19:37.433Z,57.01
2023-07-02T13:22:41.534Z,60.66
2023-07-02T13:25:45.440Z,64.63
2023-07-02T13:28:52.186Z,67.91
2023-07-02T13:32:00.205Z,70.32
2023-07-02T13:35:04.126Z,73.30
2023-07-02T13:38:15.109Z,75.11
2023-07-02T13:41:18.116Z,77.00
2023-07-02T13:44:24.823Z,76.70
2023-07-02T13:47:30.351Z,76.33
2023-07-02T13:50:54.392Z,76.00
2023-07-02T13:54:21.481Z,74.03
2023-07-02T13:57:30.293Z,73.25
2023-07-02T14:00:33.137Z,71.39
2023-07-02T14:03:38.891Z,68.82
2023-07-02T14:07:01.449Z,69.87
2023-07-02T14:10:05.602Z,67.20
2023-07-02T14:13:11.620Z,66.28
2023-07-02T14:16:26.056Z,67.67
2023-07-02T14:19:44.768Z,65.97
2023-07-02T14:22:49.344Z,64.37
2023-07-02T14:26:00.932Z,62.76
2023-07-02T14:29:04.612Z,63.05
2023-07-02T14:32:26.005Z,62.25
2023-07-02T14:35:32.720Z,62.58
2023-07-02T14:38:36.757Z,62.29
2023-07-02T14:41:41.012Z,62.56
2023-07-02T14:44:53.086Z,63.08
2023-07-02T14:48:01.841Z,62.19
2023-07-02T14:51:09.385Z,62.53
2023-07-02T14:54:12.452Z,60.59
2023-07-02T14:57:18.552Z,59.10
2023-07-02T15:00:23.824Z,57.88
2023-07-02T15:03:30.834Z,57.60
2023-07-02T15:06:58.177Z,54.93
2023-07-02T15:10:21.657Z,54.67
2023-07-02T15:13:32.213Z,56.32
2023-07-02T15:16:39.816Z,55.41
2023-07-02T15:19:47.145Z,53.94
2023-07-02T15:22:51.341Z,55.47
2023-07-02T15:26:02.897Z,53.76
2023-07-02T15:29:12.691Z,52.94
2023-07-02T15:32:24.105Z,52.40
2023-07-02T15:35:36.086Z,52.33
2023-07-02T15:38:39.792Z,52.96
2023-07-02T15:41:45.057Z,52.07
2023-07-02T15:44:52.408Z,53.04
2023-07-02T15:48:10.771Z,52.95
2023-07-02T15:51:27.577Z,53.27
2023-07-02T15:54:43.506Z,54.17
2023-07-02T15:57:50.900Z,54.11
2023-07-02T16:01:13.717Z,54.48
2023-07-02T16:04:17.849Z,54.48
2023-07-02T16:07:25.260Z,54.18
2023-07-02T16:10:33.226Z,54.47
2023-07-02T16:13:38.537Z,53.61
2023-07-02T16:16:56.533Z,53.46
2023-07-02T16:20:02.375Z,54.94
2023-07-02T16:23:09.587Z,53.88
2023-07-02T16:26:15.050Z,54.37
2023-07-02T16:29:21.489Z,54.69
2023-07-02T16:32:28.822Z,54.96
2023-07-02T16:35:37.166Z,54.50
2023-07-02T16:38:46.719Z,54.44
2023-07-02T16:41:54.358Z,55.06
2023-07-02T16:45:01.617Z,54.13
2023-07-02T16:48:07.969Z,52.25
2023-07-02T16:51:15.127Z,50.07
2023-07-02T16:54:25.124Z,47.87
2023-07-02T16:57:48.424Z,46.59
2023-07-02T17:00:59.837Z,45.81
2023-07-02T17:04:04.446Z,45.61
2023-07-02T17:07:09.345Z,42.83
2023-07-02T17:10:17.781Z,40.29
2023-07-02T17:13:26.456Z,39.46
2023-07-02T17:16:37.983Z,38.75
2023-07-02T17:20:06.501Z,37.40
2023-07-02T17:23:11.452Z,38.01
2023-07-02T17:26:19.852Z,39.17
2023-07-02T17:30:00.117Z,40.31
2023-07-02T17:33:07.526Z,40.84
2023-07-02T17:36:19.292Z,42.64
2023-07-02T17:39:24.557Z,43.62
2023-07-02T17:42:27.980Z,44.88
2023-07-02T17:45:42.037Z,45.65
2023-07-02T17:48:46.425Z,46.23
2023-07-02T17:51:51.099Z,46.54
2023-07-02T17:55:00.904Z,46.33
2023-07-02T17:58:05.224Z,46.22
2023-07-02T18:01:09.103Z,46.73
2023-07-02T18:04:29.682Z,47.29
2023-07-02T18:07:38.988Z,48.43
2023-07-02T18:11:05.996Z,49.51
2023-07-02T18:14:12.620Z,50.06
2023-07-02T18:17:18.021Z,50.08
2023-07-02T18:20:25.798Z,50.54
2023-07-02T18:23:30.812Z,51.33
2023-07-02T18:26:34.484Z,52.36
2023-07-02T18:29:41.766Z,53.24
2023-07-02T18:32:52.389Z,54.32
2023-07-02T18:35:59.297Z,55.14
2023-07-02T18:39:06.443Z,56.18
2023-07-02T18:42:15.902Z,57.35
2023-07-02T18:45:29.819Z,58.57
2023-07-02T18:48:34.170Z,59.07
2023-07-02T18:51:39.564Z,60.07
2023-07-02T18:54:44.247Z,61.71
2023-07-02T18:57:49.065Z,62.86
2023-07-02T19:00:56.354Z,64.28
2023-07-02T19:04:01.632Z,65.40
2023-07-02T19:07:07.857Z,66.30
2023-07-02T19:10:19.163Z,66.75
2023-07-02T19:13:25.683Z,67.84
2023-07-02T19:16:29.719Z,68.95
2023-07-02T19:19:44.664Z,68.98
2023-07-02T19:22:49.782Z,69.90
2023-07-02T19:25:58.643Z,71.23
2023-07-02T19:29:23.298Z,71.87
2023-07-02T19:32:33.371Z,72.17
2023-07-02T19:35:44.520Z,70.97
2023-07-02T19:38:50.824Z,72.67
2023-07-02T19:41:55.462Z,73.88
2023-07-02T19:45:00.491Z,74.00
2023-07-02T19:48:09.339Z,74.26
2023-07-02T19:51:19.222Z,74.97
2023-07-02T19:54:22.436Z,72.46
2023-07-02T19:57:26.175Z,72.36
2023-07-02T20:00:31.112Z,73.81
2023-07-02T20:03:34.497Z,75.44
2023-07-02T20:06:39.803Z,76.17
2023-07-02T20:09:44.061Z,75.19
2023-07-02T20:12:49.497Z,75.42
2023-07-02T20:15:58.260Z,76.44
2023-07-02T20:19:10.005Z,77.23
2023-07-02T20:22:14.288Z,77.80
2023-07-02T20:28:29.498Z,78.05
2023-07-02T20:31:33.804Z,78.93
2023-07-02T20:34:38.345Z,78.51
2023-07-02T20:37:42.254Z,78.81
2023-07-02T20:40:47.141Z,79.02
2023-07-02T20:43:52.211Z,77.61
2023-07-02T20:46:56.858Z,78.73
2023-07-02T20:50:15.152Z,79.59
2023-07-02T20:53:38.465Z,80.13
2023-07-02T20:56:43.667Z,80.42
2023-07-02T20:59:54.896Z,80.12
2023-07-02T21:03:00.694Z,79.29
2023-07-02T21:06:27.755Z,78.63
2023-07-02T21:09:35.012Z,78.39
2023-07-02T21:12:39.597Z,79.56
2023-07-02T21:15:44.017Z,79.81
2023-07-02T21:19:11.314Z,81.51
2023-07-02T21:22:16.033Z,81.71
2023-07-02T21:25:19.857Z,80.83
2023-07-02T21:28:26.845Z,81.11
2023-07-02T21:31:36.601Z,81.47
2023-07-02T21:34:45.457Z,82.28
2023-07-02T21:37:50.882Z,82.57
2023-07-02T21:40:58.360Z,82.73
2023-07-02T21:44:21.159Z,82.44
2023-07-02T21:47:31.144Z,82.27
2023-07-02T21:50:35.877Z,81.33
2023-07-02T21:53:40.726Z,82.22
2023-07-02T21:56:49.137Z,82.27
2023-07-02T22:00:00.487Z,82.45
2023-07-02T22:03:18.860Z,83.13
2023-07-02T22:06:29.404Z,83.36
2023-07-02T22:09:35.499Z,83.29
2023-07-02T22:12:41.948Z,82.93
2023-07-02T22:15:49.662Z,83.67
2023-07-02T22:19:07.490Z,84.29
2023-07-02T22:22:21.272Z,84.93
2023-07-02T22:25:29.719Z,85.00
2023-07-02T22:28:57.089Z,84.70
2023-07-02T22:32:33.146Z,84.56
2023-07-02T22:35:37.149Z,84.87
2023-07-02T22:38:51.159Z,84.65
2023-07-02T22:41:59.612Z,85.26
2023-07-02T22:45:14.606Z,85.42
2023-07-02T22:48:34.685Z,85.67
2023-07-02T22:52:01.363Z,85.57
2023-07-02T22:55:11.308Z,85.76
2023-07-02T22:58:27.072Z,85.87
2023-07-02T23:01:43.088Z,85.44
2023-07-02T23:05:06.564Z,85.82
2023-07-02T23:08:30.798Z,85.96
2023-07-02T23:11:38.033Z,85.46
2023-07-02T23:14:50.844Z,86.18
2023-07-02T23:18:11.305Z,86.92
2023-07-02T23:21:18.368Z,88.25
2023-07-02T23:24:39.648Z,86.99
2023-07-02T23:28:07.252Z,85.59
2023-07-02T23:31:44.675Z,85.74
2023-07-02T23:34:57.201Z,85.54
2023-07-02T23:38:07.535Z,85.40
2023-07-02T23:41:39.774Z,85.59
2023-07-02T23:44:53.402Z,85.42
2023-07-02T23:47:57.406Z,85.49
2023-07-02T23:51:08.783Z,85.41
2023-07-02T23:54:32.676Z,84.75
2023-07-02T23:57:36.156Z,84.72
